sensor_id;sensor_type;location;lat;lon;timestamp;P1;durP1;ratioP1;P2;durP2;ratioP2
55268;SDS011;41131;42.990;21.954;2022-10-31T00:01:01;43.05;;;27.60;;
55268;SDS011;41131;42.990;21.954;2022-10-31T00:03:27;41.55;;;28.13;;
55268;SDS011;41131;42.990;21.954;2022-10-31T00:05:53;41.20;;;29.58;;
55268;SDS011;41131;42.990;21.954;2022-10-31T00:08:19;37.78;;;28.05;;
55268;SDS011;41131;42.990;21.954;2022-10-31T00:10:45;40.65;;;28.50;;
55268;SDS011;41131;42.990;21.954;2022-10-31T00:13:12;41.85;;;28.67;;
55268;SDS011;41131;42.990;21.954;2022-10-31T00:15:39;36.88;;;28.15;;
55268;SDS011;41131;42.990;21.954;2022-10-31T00:18:06;39.95;;;27.92;;
55268;SDS011;41131;42.990;21.954;2022-10-31T00:20:32;38.80;;;27.05;;
55268;SDS011;41131;42.990;21.954;2022-10-31T00:22:59;42.45;;;28.23;;
55268;SDS011;41131;42.990;21.954;2022-10-31T00:25:26;47.13;;;34.45;;
55268;SDS011;41131;42.990;21.954;2022-10-31T00:27:52;43.78;;;29.40;;
55268;SDS011;41131;42.990;21.954;2022-10-31T00:30:18;45.63;;;26.70;;
55268;SDS011;41131;42.990;21.954;2022-10-31T00:32:44;35.60;;;24.83;;
55268;SDS011;41131;42.990;21.954;2022-10-31T00:35:10;37.17;;;24.25;;
55268;SDS011;41131;42.990;21.954;2022-10-31T00:37:37;33.75;;;22.88;;
55268;SDS011;41131;42.990;21.954;2022-10-31T00:40:03;34.00;;;22.98;;
55268;SDS011;41131;42.990;21.954;2022-10-31T00:42:29;35.78;;;22.55;;
55268;SDS011;41131;42.990;21.954;2022-10-31T00:44:55;43.25;;;24.55;;
55268;SDS011;41131;42.990;21.954;2022-10-31T00:47:21;34.78;;;23.65;;
55268;SDS011;41131;42.990;21.954;2022-10-31T00:49:47;41.97;;;27.75;;
55268;SDS011;41131;42.990;21.954;2022-10-31T00:52:13;47.25;;;32.13;;
55268;SDS011;41131;42.990;21.954;2022-10-31T00:54:39;48.25;;;31.45;;
55268;SDS011;41131;42.990;21.954;2022-10-31T00:57:05;43.85;;;30.63;;
55268;SDS011;41131;42.990;21.954;2022-10-31T00:59:31;43.63;;;32.10;;
55268;SDS011;41131;42.990;21.954;2022-10-31T01:01:57;47.67;;;30.95;;
55268;SDS011;41131;42.990;21.954;2022-10-31T01:04:23;49.63;;;33.53;;
55268;SDS011;41131;42.990;21.954;2022-10-31T01:06:49;45.88;;;32.17;;
55268;SDS011;41131;42.990;21.954;2022-10-31T01:09:15;51.03;;;32.67;;
55268;SDS011;41131;42.990;21.954;2022-10-31T01:11:41;46.42;;;32.65;;
55268;SDS011;41131;42.990;21.954;2022-10-31T01:14:08;53.42;;;35.65;;
55268;SDS011;41131;42.990;21.954;2022-10-31T01:16:34;45.10;;;31.50;;
55268;SDS011;41131;42.990;21.954;2022-10-31T01:19:00;46.22;;;30.70;;
55268;SDS011;41131;42.990;21.954;2022-10-31T01:21:27;44.88;;;30.73;;
55268;SDS011;41131;42.990;21.954;2022-10-31T01:23:53;40.03;;;29.20;;
55268;SDS011;41131;42.990;21.954;2022-10-31T01:26:27;41.50;;;28.58;;
55268;SDS011;41131;42.990;21.954;2022-10-31T01:29:00;40.25;;;27.55;;
55268;SDS011;41131;42.990;21.954;2022-10-31T01:31:28;41.67;;;27.10;;
55268;SDS011;41131;42.990;21.954;2022-10-31T01:33:55;38.63;;;26.27;;
55268;SDS011;41131;42.990;21.954;2022-10-31T01:36:22;38.30;;;26.70;;
55268;SDS011;41131;42.990;21.954;2022-10-31T01:38:49;36.60;;;26.17;;
55268;SDS011;41131;42.990;21.954;2022-10-31T01:41:17;35.65;;;25.88;;
55268;SDS011;41131;42.990;21.954;2022-10-31T01:43:48;42.78;;;26.45;;
55268;SDS011;41131;42.990;21.954;2022-10-31T01:46:15;43.17;;;29.58;;
55268;SDS011;41131;42.990;21.954;2022-10-31T01:48:42;50.33;;;37.30;;
55268;SDS011;41131;42.990;21.954;2022-10-31T01:51:09;54.40;;;38.25;;
55268;SDS011;41131;42.990;21.954;2022-10-31T01:53:36;50.78;;;33.30;;
55268;SDS011;41131;42.990;21.954;2022-10-31T01:56:02;36.08;;;23.92;;
55268;SDS011;41131;42.990;21.954;2022-10-31T01:58:28;32.28;;;23.58;;
55268;SDS011;41131;42.990;21.954;2022-10-31T02:00:57;39.15;;;22.98;;
55268;SDS011;41131;42.990;21.954;2022-10-31T02:03:24;31.13;;;23.10;;
55268;SDS011;41131;42.990;21.954;2022-10-31T02:05:51;37.75;;;25.98;;
55268;SDS011;41131;42.990;21.954;2022-10-31T02:08:26;28.98;;;22.20;;
55268;SDS011;41131;42.990;21.954;2022-10-31T02:10:52;32.78;;;22.08;;
55268;SDS011;41131;42.990;21.954;2022-10-31T02:13:19;31.33;;;21.70;;
55268;SDS011;41131;42.990;21.954;2022-10-31T02:15:47;28.23;;;20.35;;
55268;SDS011;41131;42.990;21.954;2022-10-31T02:18:15;32.03;;;20.58;;
55268;SDS011;41131;42.990;21.954;2022-10-31T02:21:28;32.47;;;20.52;;
55268;SDS011;41131;42.990;21.954;2022-10-31T02:33:58;29.50;;;19.90;;
55268;SDS011;41131;42.990;21.954;2022-10-31T02:41:37;37.97;;;21.27;;
55268;SDS011;41131;42.990;21.954;2022-10-31T02:47:36;24.50;;;17.23;;
55268;SDS011;41131;42.990;21.954;2022-10-31T02:51:59;23.70;;;17.02;;
55268;SDS011;41131;42.990;21.954;2022-10-31T02:54:26;22.83;;;16.80;;
55268;SDS011;41131;42.990;21.954;2022-10-31T02:56:54;22.85;;;16.92;;
55268;SDS011;41131;42.990;21.954;2022-10-31T02:59:22;25.20;;;17.02;;
55268;SDS011;41131;42.990;21.954;2022-10-31T03:01:53;22.50;;;16.48;;
55268;SDS011;41131;42.990;21.954;2022-10-31T03:11:52;28.17;;;19.00;;
55268;SDS011;41131;42.990;21.954;2022-10-31T03:14:22;27.20;;;19.08;;
55268;SDS011;41131;42.990;21.954;2022-10-31T03:16:50;27.63;;;20.70;;
55268;SDS011;41131;42.990;21.954;2022-10-31T03:19:19;28.92;;;20.15;;
55268;SDS011;41131;42.990;21.954;2022-10-31T03:22:01;28.27;;;20.50;;
55268;SDS011;41131;42.990;21.954;2022-10-31T03:24:30;31.20;;;20.42;;
55268;SDS011;41131;42.990;21.954;2022-10-31T03:26:57;38.67;;;20.98;;
55268;SDS011;41131;42.990;21.954;2022-10-31T03:29:25;40.05;;;21.67;;
55268;SDS011;41131;42.990;21.954;2022-10-31T03:31:54;33.05;;;20.63;;
55268;SDS011;41131;42.990;21.954;2022-10-31T03:34:24;34.95;;;22.15;;
55268;SDS011;41131;42.990;21.954;2022-10-31T03:36:52;36.83;;;21.27;;
55268;SDS011;41131;42.990;21.954;2022-10-31T03:39:20;30.48;;;18.30;;
55268;SDS011;41131;42.990;21.954;2022-10-31T03:41:48;28.35;;;18.30;;
55268;SDS011;41131;42.990;21.954;2022-10-31T03:44:16;25.00;;;18.33;;
55268;SDS011;41131;42.990;21.954;2022-10-31T03:46:43;27.30;;;18.63;;
55268;SDS011;41131;42.990;21.954;2022-10-31T03:49:09;26.58;;;18.63;;
55268;SDS011;41131;42.990;21.954;2022-10-31T03:51:42;25.42;;;18.40;;
55268;SDS011;41131;42.990;21.954;2022-10-31T03:57:16;24.63;;;17.55;;
55268;SDS011;41131;42.990;21.954;2022-10-31T04:02:14;27.40;;;18.63;;
55268;SDS011;41131;42.990;21.954;2022-10-31T04:04:41;23.33;;;18.02;;
55268;SDS011;41131;42.990;21.954;2022-10-31T04:07:09;27.20;;;17.92;;
55268;SDS011;41131;42.990;21.954;2022-10-31T04:09:36;27.98;;;18.90;;
55268;SDS011;41131;42.990;21.954;2022-10-31T04:12:03;26.45;;;18.20;;
55268;SDS011;41131;42.990;21.954;2022-10-31T04:14:31;28.25;;;18.40;;
55268;SDS011;41131;42.990;21.954;2022-10-31T04:16:58;25.83;;;18.13;;
55268;SDS011;41131;42.990;21.954;2022-10-31T04:19:25;28.77;;;18.80;;
55268;SDS011;41131;42.990;21.954;2022-10-31T04:21:53;30.65;;;19.08;;
55268;SDS011;41131;42.990;21.954;2022-10-31T04:24:19;25.88;;;19.05;;
55268;SDS011;41131;42.990;21.954;2022-10-31T04:26:45;31.20;;;19.85;;
55268;SDS011;41131;42.990;21.954;2022-10-31T04:29:11;28.50;;;20.02;;
55268;SDS011;41131;42.990;21.954;2022-10-31T04:31:37;35.30;;;20.38;;
55268;SDS011;41131;42.990;21.954;2022-10-31T04:34:03;28.20;;;19.05;;
55268;SDS011;41131;42.990;21.954;2022-10-31T04:36:29;29.50;;;19.90;;
55268;SDS011;41131;42.990;21.954;2022-10-31T04:38:55;28.38;;;20.25;;
55268;SDS011;41131;42.990;21.954;2022-10-31T04:41:21;34.13;;;21.73;;
55268;SDS011;41131;42.990;21.954;2022-10-31T04:43:47;33.33;;;21.88;;
55268;SDS011;41131;42.990;21.954;2022-10-31T04:46:13;29.17;;;18.75;;
55268;SDS011;41131;42.990;21.954;2022-10-31T04:48:39;25.52;;;17.33;;
55268;SDS011;41131;42.990;21.954;2022-10-31T04:51:05;28.40;;;18.55;;
55268;SDS011;41131;42.990;21.954;2022-10-31T04:53:31;25.13;;;18.42;;
55268;SDS011;41131;42.990;21.954;2022-10-31T04:55:58;25.63;;;19.30;;
55268;SDS011;41131;42.990;21.954;2022-10-31T04:58:27;27.05;;;18.90;;
55268;SDS011;41131;42.990;21.954;2022-10-31T05:00:54;38.30;;;20.83;;
55268;SDS011;41131;42.990;21.954;2022-10-31T05:03:21;29.30;;;20.33;;
55268;SDS011;41131;42.990;21.954;2022-10-31T05:05:47;41.20;;;17.88;;
55268;SDS011;41131;42.990;21.954;2022-10-31T05:08:13;22.48;;;15.55;;
55268;SDS011;41131;42.990;21.954;2022-10-31T05:10:39;30.38;;;19.73;;
55268;SDS011;41131;42.990;21.954;2022-10-31T05:13:05;25.73;;;16.15;;
55268;SDS011;41131;42.990;21.954;2022-10-31T05:15:31;23.85;;;16.20;;
55268;SDS011;41131;42.990;21.954;2022-10-31T05:17:58;28.50;;;17.92;;
55268;SDS011;41131;42.990;21.954;2022-10-31T05:20:25;27.52;;;17.70;;
55268;SDS011;41131;42.990;21.954;2022-10-31T05:22:52;29.88;;;16.30;;
55268;SDS011;41131;42.990;21.954;2022-10-31T05:25:20;33.25;;;21.42;;
55268;SDS011;41131;42.990;21.954;2022-10-31T05:27:47;42.42;;;22.15;;
55268;SDS011;41131;42.990;21.954;2022-10-31T05:30:14;67.60;;;37.10;;
55268;SDS011;41131;42.990;21.954;2022-10-31T05:32:42;59.13;;;31.05;;
55268;SDS011;41131;42.990;21.954;2022-10-31T05:35:10;50.75;;;30.00;;
55268;SDS011;41131;42.990;21.954;2022-10-31T05:37:36;66.38;;;33.97;;
55268;SDS011;41131;42.990;21.954;2022-10-31T05:40:02;77.97;;;39.08;;
55268;SDS011;41131;42.990;21.954;2022-10-31T05:42:29;80.15;;;46.35;;
55268;SDS011;41131;42.990;21.954;2022-10-31T05:44:55;95.30;;;56.63;;
55268;SDS011;41131;42.990;21.954;2022-10-31T05:47:21;95.47;;;51.85;;
55268;SDS011;41131;42.990;21.954;2022-10-31T05:49:47;105.40;;;57.17;;
55268;SDS011;41131;42.990;21.954;2022-10-31T05:52:13;86.32;;;46.53;;
55268;SDS011;41131;42.990;21.954;2022-10-31T05:54:39;55.17;;;33.58;;
55268;SDS011;41131;42.990;21.954;2022-10-31T05:57:05;46.15;;;30.05;;
55268;SDS011;41131;42.990;21.954;2022-10-31T05:59:31;45.58;;;28.40;;
55268;SDS011;41131;42.990;21.954;2022-10-31T06:01:57;45.15;;;27.75;;
55268;SDS011;41131;42.990;21.954;2022-10-31T06:04:23;47.22;;;29.27;;
55268;SDS011;41131;42.990;21.954;2022-10-31T06:06:49;50.33;;;35.05;;
55268;SDS011;41131;42.990;21.954;2022-10-31T06:09:16;58.92;;;41.70;;
55268;SDS011;41131;42.990;21.954;2022-10-31T06:11:42;62.08;;;41.20;;
55268;SDS011;41131;42.990;21.954;2022-10-31T06:14:08;62.85;;;41.92;;
55268;SDS011;41131;42.990;21.954;2022-10-31T06:16:34;58.83;;;42.95;;
55268;SDS011;41131;42.990;21.954;2022-10-31T06:19:00;67.95;;;44.83;;
55268;SDS011;41131;42.990;21.954;2022-10-31T06:21:26;66.55;;;44.60;;
55268;SDS011;41131;42.990;21.954;2022-10-31T06:23:53;55.38;;;39.72;;
55268;SDS011;41131;42.990;21.954;2022-10-31T06:26:19;44.95;;;30.13;;
55268;SDS011;41131;42.990;21.954;2022-10-31T06:28:45;47.47;;;27.60;;
55268;SDS011;41131;42.990;21.954;2022-10-31T06:31:11;48.88;;;33.00;;
55268;SDS011;41131;42.990;21.954;2022-10-31T06:33:37;49.35;;;28.83;;
55268;SDS011;41131;42.990;21.954;2022-10-31T06:36:03;39.50;;;25.92;;
55268;SDS011;41131;42.990;21.954;2022-10-31T06:38:29;43.22;;;28.85;;
55268;SDS011;41131;42.990;21.954;2022-10-31T06:40:55;42.03;;;28.77;;
55268;SDS011;41131;42.990;21.954;2022-10-31T06:43:21;43.03;;;27.80;;
55268;SDS011;41131;42.990;21.954;2022-10-31T06:45:47;34.15;;;27.77;;
55268;SDS011;41131;42.990;21.954;2022-10-31T06:48:13;37.47;;;27.30;;
55268;SDS011;41131;42.990;21.954;2022-10-31T06:50:39;38.78;;;27.23;;
55268;SDS011;41131;42.990;21.954;2022-10-31T06:53:05;41.50;;;30.13;;
55268;SDS011;41131;42.990;21.954;2022-10-31T06:55:31;35.97;;;27.17;;
55268;SDS011;41131;42.990;21.954;2022-10-31T06:57:58;36.55;;;25.10;;
55268;SDS011;41131;42.990;21.954;2022-10-31T07:00:25;38.92;;;26.88;;
55268;SDS011;41131;42.990;21.954;2022-10-31T07:05:20;34.92;;;26.15;;
55268;SDS011;41131;42.990;21.954;2022-10-31T07:07:46;40.33;;;28.80;;
55268;SDS011;41131;42.990;21.954;2022-10-31T07:10:12;41.17;;;31.95;;
55268;SDS011;41131;42.990;21.954;2022-10-31T07:12:38;31.83;;;24.35;;
55268;SDS011;41131;42.990;21.954;2022-10-31T07:15:05;36.13;;;26.20;;
55268;SDS011;41131;42.990;21.954;2022-10-31T07:17:31;47.42;;;38.85;;
55268;SDS011;41131;42.990;21.954;2022-10-31T07:19:57;54.60;;;41.90;;
55268;SDS011;41131;42.990;21.954;2022-10-31T07:22:23;61.08;;;42.67;;
55268;SDS011;41131;42.990;21.954;2022-10-31T07:24:49;57.22;;;41.53;;
55268;SDS011;41131;42.990;21.954;2022-10-31T07:27:15;62.53;;;38.63;;
55268;SDS011;41131;42.990;21.954;2022-10-31T07:29:41;54.13;;;37.58;;
55268;SDS011;41131;42.990;21.954;2022-10-31T07:32:07;62.95;;;42.47;;
55268;SDS011;41131;42.990;21.954;2022-10-31T07:34:34;47.67;;;27.55;;
55268;SDS011;41131;42.990;21.954;2022-10-31T07:37:00;34.15;;;23.77;;
55268;SDS011;41131;42.990;21.954;2022-10-31T07:39:26;34.28;;;23.80;;
55268;SDS011;41131;42.990;21.954;2022-10-31T07:41:52;34.10;;;23.27;;
55268;SDS011;41131;42.990;21.954;2022-10-31T07:44:18;36.65;;;22.52;;
55268;SDS011;41131;42.990;21.954;2022-10-31T07:46:44;34.92;;;25.85;;
55268;SDS011;41131;42.990;21.954;2022-10-31T07:49:10;30.92;;;21.75;;
55268;SDS011;41131;42.990;21.954;2022-10-31T07:51:36;42.65;;;26.48;;
55268;SDS011;41131;42.990;21.954;2022-10-31T07:54:02;30.17;;;19.80;;
55268;SDS011;41131;42.990;21.954;2022-10-31T07:56:28;30.98;;;18.92;;
55268;SDS011;41131;42.990;21.954;2022-10-31T07:58:54;26.27;;;18.73;;
55268;SDS011;41131;42.990;21.954;2022-10-31T08:01:20;29.10;;;20.10;;
55268;SDS011;41131;42.990;21.954;2022-10-31T08:03:46;32.40;;;27.50;;
55268;SDS011;41131;42.990;21.954;2022-10-31T08:06:12;40.78;;;32.03;;
55268;SDS011;41131;42.990;21.954;2022-10-31T08:08:38;37.60;;;26.08;;
55268;SDS011;41131;42.990;21.954;2022-10-31T08:11:04;36.38;;;29.58;;
55268;SDS011;41131;42.990;21.954;2022-10-31T08:13:31;38.17;;;28.70;;
55268;SDS011;41131;42.990;21.954;2022-10-31T08:15:57;33.53;;;21.75;;
55268;SDS011;41131;42.990;21.954;2022-10-31T08:18:28;29.20;;;21.80;;
55268;SDS011;41131;42.990;21.954;2022-10-31T08:20:54;28.33;;;20.48;;
55268;SDS011;41131;42.990;21.954;2022-10-31T08:23:21;28.88;;;21.58;;
55268;SDS011;41131;42.990;21.954;2022-10-31T08:25:47;32.17;;;23.88;;
55268;SDS011;41131;42.990;21.954;2022-10-31T08:28:13;32.17;;;23.30;;
55268;SDS011;41131;42.990;21.954;2022-10-31T08:30:40;27.05;;;19.45;;
55268;SDS011;41131;42.990;21.954;2022-10-31T08:33:10;28.77;;;18.13;;
55268;SDS011;41131;42.990;21.954;2022-10-31T08:35:37;22.20;;;17.15;;
55268;SDS011;41131;42.990;21.954;2022-10-31T08:38:03;39.67;;;18.98;;
55268;SDS011;41131;42.990;21.954;2022-10-31T08:40:30;26.92;;;18.90;;
55268;SDS011;41131;42.990;21.954;2022-10-31T08:42:58;29.20;;;18.52;;
55268;SDS011;41131;42.990;21.954;2022-10-31T08:45:24;29.60;;;19.08;;
55268;SDS011;41131;42.990;21.954;2022-10-31T08:47:50;27.38;;;18.60;;
55268;SDS011;41131;42.990;21.954;2022-10-31T08:50:17;27.95;;;17.33;;
55268;SDS011;41131;42.990;21.954;2022-10-31T08:52:43;24.13;;;18.45;;
55268;SDS011;41131;42.990;21.954;2022-10-31T08:55:09;24.65;;;18.38;;
55268;SDS011;41131;42.990;21.954;2022-10-31T08:57:35;29.42;;;16.65;;
55268;SDS011;41131;42.990;21.954;2022-10-31T09:00:01;23.55;;;16.45;;
55268;SDS011;41131;42.990;21.954;2022-10-31T09:02:27;26.83;;;17.58;;
55268;SDS011;41131;42.990;21.954;2022-10-31T09:04:53;28.70;;;19.27;;
55268;SDS011;41131;42.990;21.954;2022-10-31T09:07:19;35.28;;;23.92;;
55268;SDS011;41131;42.990;21.954;2022-10-31T09:09:45;32.83;;;21.15;;
55268;SDS011;41131;42.990;21.954;2022-10-31T09:12:11;32.20;;;21.23;;
55268;SDS011;41131;42.990;21.954;2022-10-31T09:14:37;45.00;;;18.95;;
55268;SDS011;41131;42.990;21.954;2022-10-31T09:17:03;28.98;;;19.02;;
55268;SDS011;41131;42.990;21.954;2022-10-31T09:19:29;34.55;;;19.70;;
55268;SDS011;41131;42.990;21.954;2022-10-31T09:21:55;21.17;;;15.32;;
55268;SDS011;41131;42.990;21.954;2022-10-31T09:24:21;21.50;;;14.75;;
55268;SDS011;41131;42.990;21.954;2022-10-31T09:26:48;29.88;;;16.00;;
55268;SDS011;41131;42.990;21.954;2022-10-31T09:29:14;27.27;;;16.52;;
55268;SDS011;41131;42.990;21.954;2022-10-31T09:31:40;22.73;;;15.05;;
55268;SDS011;41131;42.990;21.954;2022-10-31T09:34:06;22.02;;;16.48;;
55268;SDS011;41131;42.990;21.954;2022-10-31T09:36:32;33.22;;;23.33;;
55268;SDS011;41131;42.990;21.954;2022-10-31T09:38:58;43.88;;;32.22;;
55268;SDS011;41131;42.990;21.954;2022-10-31T09:43:55;23.75;;;15.55;;
55268;SDS011;41131;42.990;21.954;2022-10-31T09:46:34;22.42;;;15.93;;
55268;SDS011;41131;42.990;21.954;2022-10-31T09:51:36;28.33;;;17.00;;
55268;SDS011;41131;42.990;21.954;2022-10-31T09:56:42;27.67;;;16.85;;
55268;SDS011;41131;42.990;21.954;2022-10-31T09:59:25;24.80;;;16.45;;
55268;SDS011;41131;42.990;21.954;2022-10-31T10:06:50;27.08;;;19.85;;
55268;SDS011;41131;42.990;21.954;2022-10-31T10:09:16;22.80;;;17.10;;
55268;SDS011;41131;42.990;21.954;2022-10-31T10:27:39;25.73;;;17.80;;
55268;SDS011;41131;42.990;21.954;2022-10-31T10:35:34;34.33;;;26.10;;
55268;SDS011;41131;42.990;21.954;2022-10-31T10:40:44;28.05;;;19.35;;
55268;SDS011;41131;42.990;21.954;2022-10-31T10:43:24;28.55;;;21.02;;
55268;SDS011;41131;42.990;21.954;2022-10-31T10:48:57;24.50;;;17.77;;
55268;SDS011;41131;42.990;21.954;2022-10-31T10:56:30;25.20;;;18.00;;
55268;SDS011;41131;42.990;21.954;2022-10-31T10:58:59;27.45;;;19.15;;
55268;SDS011;41131;42.990;21.954;2022-10-31T11:01:25;25.23;;;19.73;;
55268;SDS011;41131;42.990;21.954;2022-10-31T11:03:52;18.70;;;13.35;;
55268;SDS011;41131;42.990;21.954;2022-10-31T11:06:19;21.15;;;13.38;;
55268;SDS011;41131;42.990;21.954;2022-10-31T11:08:47;17.73;;;12.45;;
55268;SDS011;41131;42.990;21.954;2022-10-31T11:13:44;25.17;;;13.70;;
55268;SDS011;41131;42.990;21.954;2022-10-31T11:16:12;19.23;;;13.90;;
55268;SDS011;41131;42.990;21.954;2022-10-31T11:18:40;18.98;;;14.32;;
55268;SDS011;41131;42.990;21.954;2022-10-31T11:21:17;16.90;;;11.93;;
55268;SDS011;41131;42.990;21.954;2022-10-31T11:23:43;15.27;;;11.10;;
55268;SDS011;41131;42.990;21.954;2022-10-31T11:26:18;18.33;;;11.75;;
55268;SDS011;41131;42.990;21.954;2022-10-31T11:28:44;15.95;;;10.77;;
55268;SDS011;41131;42.990;21.954;2022-10-31T11:31:21;28.27;;;11.73;;
55268;SDS011;41131;42.990;21.954;2022-10-31T11:33:48;25.20;;;11.48;;
55268;SDS011;41131;42.990;21.954;2022-10-31T11:36:28;20.88;;;11.85;;
55268;SDS011;41131;42.990;21.954;2022-10-31T11:38:55;20.80;;;11.48;;
55268;SDS011;41131;42.990;21.954;2022-10-31T11:41:28;16.27;;;11.73;;
55268;SDS011;41131;42.990;21.954;2022-10-31T11:44:03;16.42;;;12.27;;
55268;SDS011;41131;42.990;21.954;2022-10-31T11:46:33;18.75;;;11.43;;
55268;SDS011;41131;42.990;21.954;2022-10-31T11:49:00;18.23;;;13.40;;
55268;SDS011;41131;42.990;21.954;2022-10-31T11:51:27;17.17;;;12.80;;
55268;SDS011;41131;42.990;21.954;2022-10-31T11:53:58;25.15;;;14.93;;
55268;SDS011;41131;42.990;21.954;2022-10-31T11:56:27;24.77;;;13.85;;
55268;SDS011;41131;42.990;21.954;2022-10-31T11:59:05;25.65;;;15.75;;
55268;SDS011;41131;42.990;21.954;2022-10-31T12:01:45;28.05;;;19.45;;
55268;SDS011;41131;42.990;21.954;2022-10-31T12:04:15;26.10;;;15.90;;
55268;SDS011;41131;42.990;21.954;2022-10-31T12:06:43;24.13;;;15.63;;
55268;SDS011;41131;42.990;21.954;2022-10-31T12:14:20;24.50;;;18.85;;
55268;SDS011;41131;42.990;21.954;2022-10-31T12:58:00;19.80;;;12.88;;
55268;SDS011;41131;42.990;21.954;2022-10-31T13:00:30;19.58;;;9.93;;
55268;SDS011;41131;42.990;21.954;2022-10-31T13:05:41;24.27;;;14.77;;
55268;SDS011;41131;42.990;21.954;2022-10-31T13:08:18;23.27;;;16.20;;
55268;SDS011;41131;42.990;21.954;2022-10-31T13:10:55;23.25;;;14.98;;
55268;SDS011;41131;42.990;21.954;2022-10-31T13:16:24;22.58;;;11.98;;
55268;SDS011;41131;42.990;21.954;2022-10-31T13:18:56;24.60;;;16.88;;
55268;SDS011;41131;42.990;21.954;2022-10-31T13:21:37;29.70;;;19.92;;
55268;SDS011;41131;42.990;21.954;2022-10-31T13:24:14;35.13;;;22.98;;
55268;SDS011;41131;42.990;21.954;2022-10-31T13:26:49;20.73;;;14.05;;
55268;SDS011;41131;42.990;21.954;2022-10-31T13:31:55;17.08;;;9.65;;
55268;SDS011;41131;42.990;21.954;2022-10-31T13:45:22;40.70;;;24.17;;
55268;SDS011;41131;42.990;21.954;2022-10-31T13:47:56;51.15;;;29.33;;
55268;SDS011;41131;42.990;21.954;2022-10-31T13:50:42;27.65;;;21.00;;
55268;SDS011;41131;42.990;21.954;2022-10-31T13:53:21;35.25;;;24.63;;
55268;SDS011;41131;42.990;21.954;2022-10-31T13:55:48;38.30;;;29.90;;
55268;SDS011;41131;42.990;21.954;2022-10-31T13:58:27;62.95;;;49.25;;
55268;SDS011;41131;42.990;21.954;2022-10-31T14:03:42;21.88;;;13.82;;
55268;SDS011;41131;42.990;21.954;2022-10-31T14:06:10;24.33;;;8.82;;
55268;SDS011;41131;42.990;21.954;2022-10-31T14:08:41;24.02;;;15.10;;
55268;SDS011;41131;42.990;21.954;2022-10-31T14:11:18;19.70;;;11.00;;
55268;SDS011;41131;42.990;21.954;2022-10-31T14:13:52;25.70;;;12.80;;
55268;SDS011;41131;42.990;21.954;2022-10-31T14:16:24;33.60;;;19.67;;
55268;SDS011;41131;42.990;21.954;2022-10-31T14:23:54;33.78;;;17.58;;
55268;SDS011;41131;42.990;21.954;2022-10-31T14:28:54;30.48;;;19.77;;
55268;SDS011;41131;42.990;21.954;2022-10-31T14:36:50;39.55;;;21.63;;
55268;SDS011;41131;42.990;21.954;2022-10-31T14:44:43;56.08;;;19.30;;
55268;SDS011;41131;42.990;21.954;2022-10-31T14:47:36;46.92;;;20.30;;
55268;SDS011;41131;42.990;21.954;2022-10-31T14:53:03;37.22;;;20.05;;
55268;SDS011;41131;42.990;21.954;2022-10-31T14:55:30;53.65;;;23.10;;
55268;SDS011;41131;42.990;21.954;2022-10-31T14:57:58;50.80;;;23.48;;
55268;SDS011;41131;42.990;21.954;2022-10-31T15:00:27;27.52;;;11.57;;
55268;SDS011;41131;42.990;21.954;2022-10-31T15:03:16;30.58;;;12.60;;
55268;SDS011;41131;42.990;21.954;2022-10-31T15:05:45;46.00;;;16.33;;
55268;SDS011;41131;42.990;21.954;2022-10-31T15:08:32;45.22;;;17.98;;
55268;SDS011;41131;42.990;21.954;2022-10-31T15:11:09;39.08;;;19.42;;
55268;SDS011;41131;42.990;21.954;2022-10-31T15:13:52;48.78;;;22.35;;
55268;SDS011;41131;42.990;21.954;2022-10-31T15:16:23;49.35;;;25.23;;
55268;SDS011;41131;42.990;21.954;2022-10-31T15:19:12;51.88;;;28.13;;
55268;SDS011;41131;42.990;21.954;2022-10-31T15:21:40;54.05;;;24.65;;
55268;SDS011;41131;42.990;21.954;2022-10-31T15:24:11;67.10;;;28.17;;
55268;SDS011;41131;42.990;21.954;2022-10-31T15:26:43;56.53;;;25.13;;
55268;SDS011;41131;42.990;21.954;2022-10-31T15:29:12;51.50;;;24.23;;
55268;SDS011;41131;42.990;21.954;2022-10-31T15:31:48;57.90;;;27.17;;
55268;SDS011;41131;42.990;21.954;2022-10-31T15:34:25;61.83;;;27.67;;
55268;SDS011;41131;42.990;21.954;2022-10-31T15:37:03;69.40;;;34.53;;
55268;SDS011;41131;42.990;21.954;2022-10-31T15:39:29;68.50;;;37.35;;
55268;SDS011;41131;42.990;21.954;2022-10-31T15:41:56;69.53;;;37.80;;
55268;SDS011;41131;42.990;21.954;2022-10-31T15:47:04;77.47;;;45.70;;
55268;SDS011;41131;42.990;21.954;2022-10-31T15:49:38;71.32;;;45.75;;
55268;SDS011;41131;42.990;21.954;2022-10-31T15:54:42;91.25;;;56.25;;
55268;SDS011;41131;42.990;21.954;2022-10-31T15:57:12;129.05;;;90.45;;
55268;SDS011;41131;42.990;21.954;2022-10-31T15:59:38;119.22;;;88.10;;
55268;SDS011;41131;42.990;21.954;2022-10-31T16:02:11;182.18;;;136.48;;
55268;SDS011;41131;42.990;21.954;2022-10-31T16:04:47;201.15;;;143.30;;
55268;SDS011;41131;42.990;21.954;2022-10-31T16:07:16;217.20;;;156.75;;
55268;SDS011;41131;42.990;21.954;2022-10-31T16:09:50;239.50;;;169.52;;
55268;SDS011;41131;42.990;21.954;2022-10-31T16:12:18;207.98;;;149.00;;
55268;SDS011;41131;42.990;21.954;2022-10-31T16:14:45;204.00;;;151.05;;
55268;SDS011;41131;42.990;21.954;2022-10-31T16:17:12;214.73;;;163.95;;
55268;SDS011;41131;42.990;21.954;2022-10-31T16:19:59;252.80;;;192.27;;
55268;SDS011;41131;42.990;21.954;2022-10-31T16:25:09;266.73;;;213.38;;
55268;SDS011;41131;42.990;21.954;2022-10-31T16:27:46;274.98;;;220.48;;
55268;SDS011;41131;42.990;21.954;2022-10-31T16:30:36;279.75;;;222.60;;
55268;SDS011;41131;42.990;21.954;2022-10-31T16:33:04;239.02;;;182.13;;
55268;SDS011;41131;42.990;21.954;2022-10-31T16:35:45;237.73;;;182.85;;
55268;SDS011;41131;42.990;21.954;2022-10-31T16:38:11;138.18;;;98.10;;
55268;SDS011;41131;42.990;21.954;2022-10-31T16:40:39;92.28;;;64.18;;
55268;SDS011;41131;42.990;21.954;2022-10-31T16:43:08;83.32;;;53.08;;
55268;SDS011;41131;42.990;21.954;2022-10-31T16:45:37;75.37;;;54.23;;
55268;SDS011;41131;42.990;21.954;2022-10-31T16:48:13;78.50;;;55.20;;
55268;SDS011;41131;42.990;21.954;2022-10-31T16:50:45;73.47;;;52.85;;
55268;SDS011;41131;42.990;21.954;2022-10-31T16:53:12;75.07;;;54.63;;
55268;SDS011;41131;42.990;21.954;2022-10-31T16:55:45;80.15;;;54.05;;
55268;SDS011;41131;42.990;21.954;2022-10-31T16:58:22;76.68;;;50.90;;
55268;SDS011;41131;42.990;21.954;2022-10-31T17:00:59;72.88;;;50.10;;
55268;SDS011;41131;42.990;21.954;2022-10-31T17:03:25;58.88;;;44.20;;
55268;SDS011;41131;42.990;21.954;2022-10-31T17:05:52;62.92;;;39.58;;
55268;SDS011;41131;42.990;21.954;2022-10-31T17:08:20;57.15;;;41.25;;
55268;SDS011;41131;42.990;21.954;2022-10-31T17:10:45;52.85;;;38.20;;
55268;SDS011;41131;42.990;21.954;2022-10-31T17:13:33;61.05;;;45.00;;
55268;SDS011;41131;42.990;21.954;2022-10-31T17:15:59;70.80;;;50.42;;
55268;SDS011;41131;42.990;21.954;2022-10-31T17:18:27;92.22;;;68.13;;